EW7897 Weather Reports


Display with metric or nautical units.
time (UTC)temp
F
wind
direction
speed
MPH
gust
MPH
rain 1hr
in
rain 24hr
in
rain mn
in
humidity
%
barometer
mb
20191019191832 63 139 0.0 2.0 0.00 0.01 0.01 68 1015.0
20191019191331 62 132 0.0 2.0 0.00 0.01 0.01 68 1015.0
20191019190831 63 175 0.0 2.0 0.00 0.01 0.01 70 1015.1
20191019190331 63 147 0.0 5.0 0.00 0.01 0.01 68 1015.1
20191019185830 63 163 0.0 8.0 0.00 0.01 0.01 70 1015.1
20191019185332 63 121 1.0 8.0 0.00 0.01 0.01 68 1015.1
20191019184831 63 179 0.0 5.0 0.00 0.01 0.01 67 1015.2
20191019184332 63 213 0.0 2.0 0.00 0.01 0.01 67 1015.4
20191019183830 63 212 0.0 2.0 0.00 0.01 0.01 67 1015.6
20191019183331 63 122 0.0 2.0 0.00 0.01 0.01 67 1015.7
20191019182831 63 156 0.0 5.0 0.00 0.01 0.01 67 1015.7
20191019182332 63 189 0.0 5.0 0.00 0.01 0.01 67 1015.9
20191019181830 63 197 1.0 5.0 0.00 0.01 0.01 67 1015.9
20191019181331 62 171 0.0 2.0 0.00 0.01 0.01 68 1016.0
20191019180830 62 200 0.0 2.0 0.00 0.01 0.01 68 1016.3
20191019180331 62 166 0.0 2.0 0.00 0.01 0.01 68 1016.3
20191019175830 62 240 1.0 5.0 0.00 0.01 0.01 68 1016.3
20191019175332 62 192 0.0 5.0 0.00 0.01 0.01 66 1016.5
20191019174830 62 160 0.0 5.0 0.00 0.01 0.01 67 1016.4
20191019174331 61 99 2.0 5.0 0.00 0.01 0.01 67 1016.6
20191019173830 61 183 0.0 5.0 0.00 0.01 0.01 68 1016.6
20191019173331 61 221 1.0 2.0 0.00 0.01 0.01 66 1016.8
20191019172831 60 184 0.0 2.0 0.00 0.01 0.01 68 1016.8
20191019172332 60 122 0.0 2.0 0.00 0.01 0.01 67 1016.9
20191019171832 59 139 0.0 5.0 0.00 0.01 0.01 67 1017.0
20191019171331 59 94 2.0 5.0 0.00 0.01 0.01 69 1017.2
20191019170830 59 193 0.0 2.0 0.00 0.01 0.01 68 1017.2
20191019170328 58 169 0.0 8.0 0.00 0.01 0.01 70 1017.3
20191019165329 58 156 0.0 5.0 0.00 0.01 0.01 70 1017.4
20191019164828 57 115 1.0 5.0 0.00 0.01 0.01 69 1017.5
20191019164328 56 194 0.0 5.0 0.00 0.01 0.01 71 1017.5
20191019163328 55 147 0.0 5.0 0.00 0.01 0.01 72 1017.6
20191019162830 55 124 0.0 5.0 0.00 0.01 0.01 75 1017.7
20191019162328 55 160 0.0 5.0 0.00 0.01 0.01 74 1017.7
20191019161827 55 87 3.0 5.0 0.00 0.01 0.01 74 1017.8
20191019161328 54 118 2.0 8.0 0.00 0.01 0.01 76 1017.9
20191019160828 54 199 0.0 8.0 0.00 0.01 0.01 77 1017.6
20191019160329 53 129 1.0 8.0 0.00 0.01 0.01 75 1017.8
20191019155829 53 92 3.0 8.0 0.00 0.01 0.01 76 1017.7
20191019155327 52 85 1.0 8.0 0.00 0.01 0.01 78 1017.6
20191019154829 52 140 2.0 5.0 0.00 0.01 0.01 78 1017.6
20191019154329 52 17 1.0 8.0 0.00 0.01 0.01 78 1017.7
20191019153829 52 111 3.0 8.0 0.00 0.01 0.01 80 1017.6
20191019153327 51 134 0.0 8.0 0.00 0.01 0.01 81 1017.6
20191019152829 51 107 2.0 8.0 0.00 0.01 0.01 81 1017.7
20191019152328 51 236 0.0 5.0 0.00 0.01 0.01 81 1017.8
20191019151829 50 156 0.0 5.0 0.00 0.01 0.01 82 1017.9
20191019151329 50 142 0.0 5.0 0.00 0.01 0.01 82 1017.9
20191019150828 49 29 0.0 5.0 0.00 0.01 0.01 83 1017.9
20191019150328 49 137 1.0 5.0 0.00 0.01 0.01 83 1018.0
20191019145827 49 116 3.0 5.0 0.00 0.01 0.01 83 1018.1
20191019145328 48 177 0.0 8.0 0.00 0.01 0.01 84 1018.0
20191019144828 48 95 1.0 8.0 0.00 0.01 0.01 85 1018.1
20191019144328 48 59 3.0 8.0 0.00 0.01 0.01 85 1018.0
20191019143829 47 348 0.0 8.0 0.00 0.01 0.01 84 1018.0
20191019143326 46 279 0.0 10.0 0.00 0.01 0.01 87 1018.1
20191019142827 46 95 6.0 10.0 0.00 0.01 0.01 86 1018.3
20191019142327 45 205 0.0 8.0 0.00 0.01 0.01 88 1018.3
20191019141828 44 115 2.0 8.0 0.00 0.01 0.01 89 1018.3
20191019141326 43 256 0.0 8.0 0.00 0.01 0.01 91 1018.4
20191019140828 42 141 2.0 5.0 0.00 0.01 0.01 92 1018.4
20191019140327 41 116 0.0 5.0 0.00 0.01 0.01 97 1018.4
20191019135828 40 331 0.0 5.0 0.00 0.01 0.01 100 1018.4
20191019135326 40 114 1.0 8.0 0.00 0.01 0.01 100 1018.4
20191019134827 39 116 2.0 8.0 0.00 0.01 0.01 100 1018.5
20191019134326 39 100 4.0 8.0 0.00 0.01 0.01 100 1018.5
20191019133826 39 170 0.0 5.0 0.00 0.01 0.01 100 1018.5
20191019133325 39 106 0.0 5.0 0.00 0.01 0.01 100 1018.6
20191019132826 39 207 0.0 5.0 0.00 0.01 0.01 100 1018.6
20191019132326 38 114 0.0 5.0 0.00 0.01 0.01 100 1018.6
20191019131828 38 122 0.0 0.0 0.00 0.01 0.01 100 1018.6
20191019131325 38 175 0.0 0.0 0.00 0.01 0.01 100 1018.7
20191019130826 38 35 0.0 0.0 0.00 0.01 0.01 100 1018.6
20191019130327 37 178 0.0 0.0 0.00 0.01 0.01 100 1018.6
20191019125827 37 146 0.0 0.0 0.00 0.01 0.01 100 1018.6
20191019125324 37 137 0.0 0.0 0.00 0.01 0.01 100 1018.6
20191019124825 36 180 0.0 0.0 0.00 0.01 0.01 100 1018.7
20191019124326 36 147 0.0 5.0 0.00 0.01 0.01 100 1018.6
20191019123827 36 133 0.0 8.0 0.00 0.01 0.01 100 1018.5
20191019123326 36 102 2.0 8.0 0.00 0.01 0.01 100 1018.7
20191019122826 36 107 2.0 2.0 0.00 0.01 0.01 100 1018.6
20191019122325 36 112 1.0 2.0 0.01 0.01 0.01 100 1018.6
20191019121827 35 164 0.0 0.0 0.01 0.01 0.01 100 1018.7
20191019121325 35 165 0.0 2.0 0.01 0.01 0.01 100 1018.8
20191019120825 35 172 0.0 2.0 0.01 0.01 0.01 100 1018.8
20191019120325 35 146 0.0 2.0 0.01 0.01 0.01 100 1018.8
20191019115826 35 168 0.0 2.0 0.01 0.01 0.01 100 1018.9
20191019115324 35 107 1.0 5.0 0.01 0.01 0.01 100 1018.8
20191019114825 35 103 1.0 5.0 0.01 0.01 0.01 100 1018.8
20191019114326 35 94 3.0 5.0 0.01 0.01 0.01 100 1018.9
20191019113826 35 115 2.0 5.0 0.01 0.01 0.01 100 1018.9
20191019113324 35 110 0.0 0.0 0.01 0.01 0.01 100 1018.9
20191019112825 35 159 0.0 5.0 0.01 0.01 0.01 100 1018.9
20191019112324 35 109 0.0 5.0 0.00 0.00 0.00 100 1019.1
20191019111825 35 97 2.0 5.0 0.00 0.00 0.00 100 1018.9
20191019111324 35 107 2.0 5.0 0.00 0.00 0.00 100 1018.9
20191019110825 35 103 0.0 0.0 0.00 0.00 0.00 100 1018.9
20191019110324 35 160 0.0 0.0 0.00 0.00 0.00 100 1019.1
20191019105824 35 164 0.0 0.0 0.00 0.00 0.00 100 1019.1
20191019105324 35 175 0.0 0.0 0.00 0.00 0.00 100 1018.9
20191019104824 35 171 0.0 0.0 0.00 0.00 0.00 100 1018.9
20191019104324 35 163 0.0 0.0 0.00 0.00 0.00 100 1018.8
20191019103825 35 166 0.0 0.0 0.00 0.00 0.00 100 1018.8
20191019103324 35 185 0.0 0.0 0.00 0.00 0.00 100 1018.8
20191019102824 35 185 0.0 0.0 0.00 0.00 0.00 100 1018.7
20191019102323 35 181 0.0 0.0 0.00 0.00 0.00 100 1018.7
20191019101825 35 176 0.0 0.0 0.00 0.00 0.00 100 1018.6
20191019101324 35 176 0.0 0.0 0.00 0.00 0.00 100 1018.8
20191019100823 36 173 0.0 0.0 0.00 0.00 0.00 100 1018.7
20191019100323 36 152 0.0 0.0 0.00 0.00 0.00 100 1018.8
20191019095825 36 154 0.0 0.0 0.00 0.00 0.00 100 1018.8
20191019095324 37 142 0.0 0.0 0.00 0.00 0.00 100 1018.8
20191019094821 37 158 0.0 0.0 0.00 0.00 0.00 100 1018.7
20191019094323 37 165 0.0 0.0 0.00 0.00 0.00 100 1018.8
20191019093823 37 167 0.0 0.0 0.00 0.00 0.00 100 1018.8
20191019093324 37 149 0.0 0.0 0.00 0.00 0.00 100 1018.8
20191019092824 37 170 0.0 0.0 0.00 0.00 0.00 100 1018.7
20191019092323 37 160 0.0 0.0 0.00 0.00 0.00 100 1018.8
20191019091822 37 159 0.0 0.0 0.00 0.00 0.00 100 1018.7
20191019091322 37 105 0.0 0.0 0.00 0.00 0.00 100 1018.7
20191019090822 37 165 0.0 0.0 0.00 0.00 0.00 100 1018.7
20191019090323 38 115 0.0 0.0 0.00 0.00 0.00 100 1018.8
20191019085822 38 108 0.0 0.0 0.00 0.00 0.00 100 1018.7
20191019085323 38 106 0.0 0.0 0.00 0.00 0.00 100 1018.7
20191019084821 38 163 0.0 0.0 0.00 0.00 0.00 100 1018.7
20191019084322 38 162 0.0 0.0 0.00 0.00 0.00 100 1018.7
20191019083822 38 142 0.0 0.0 0.00 0.00 0.00 100 1018.7
20191019083323 38 109 0.0 0.0 0.00 0.00 0.00 100 1018.8
20191019082822 39 158 0.0 0.0 0.00 0.00 0.00 100 1018.8
20191019082322 39 134 0.0 0.0 0.00 0.00 0.00 100 1018.8
20191019081822 39 130 0.0 0.0 0.00 0.00 0.00 100 1018.7
20191019081322 38 140 0.0 0.0 0.00 0.00 0.00 100 1018.9
20191019080822 38 151 0.0 0.0 0.00 0.00 0.00 100 1018.9
20191019080322 38 153 0.0 0.0 0.00 0.00 0.00 100 1018.9
20191019075822 38 155 0.0 0.0 0.00 0.00 0.00 100 1018.9
20191019075323 38 163 0.0 0.0 0.00 0.00 0.00 100 1018.8
20191019074822 38 177 0.0 0.0 0.00 0.00 0.00 100 1018.9
20191019074322 38 181 0.0 0.0 0.00 0.00 0.00 99 1019.1
20191019073821 38 181 0.0 0.0 0.00 0.00 0.00 99 1019.2
20191019073322 38 182 0.0 0.0 0.00 0.00 0.00 99 1019.3
20191019072821 38 181 0.0 0.0 0.00 0.00 0.00 99 1019.2
20191019072321 38 181 0.0 0.0 0.00 0.00 0.00 99 1019.1
20191019071821 38 181 0.0 0.0 0.00 0.00 0.00 99 1019.1
20191019071321 38 182 0.0 0.0 0.00 0.00 0.00 99 1019.1
20191019070820 38 182 0.0 0.0 0.00 0.00 0.00 99 1018.9
20191019070320 38 181 0.0 0.0 0.00 0.00 0.00 99 1018.8
20191019065821 38 181 0.0 0.0 0.00 0.00 0.00 99 1018.9
20191019065322 39 181 0.0 0.0 0.00 0.00 0.00 99 1018.9
20191019064821 39 181 0.0 0.0 0.00 0.00 0.00 99 1019.1
20191019064322 39 181 0.0 0.0 0.00 0.00 0.00 99 1018.9
20191019063820 39 181 0.0 0.0 0.00 0.00 0.00 99 1019.1
20191019063321 39 181 0.0 0.0 0.00 0.00 0.00 99 1018.8
20191019062820 39 181 0.0 0.0 0.00 0.00 0.00 99 1018.7
20191019062321 39 180 0.0 0.0 0.00 0.00 0.00 99 1018.7
20191019061820 39 181 0.0 0.0 0.00 0.00 0.00 99 1018.6
20191019061320 40 182 0.0 0.0 0.00 0.00 0.00 99 1018.6
20191019060820 40 182 0.0 0.0 0.00 0.00 0.00 98 1018.6
20191019060321 40 168 0.0 0.0 0.00 0.00 0.00 98 1018.5
20191019055820 40 162 0.0 0.0 0.00 0.00 0.00 99 1018.5
20191019055320 40 179 0.0 0.0 0.00 0.00 0.00 98 1018.5
20191019054820 40 181 0.0 0.0 0.00 0.00 0.00 99 1018.5
20191019053818 40 185 0.0 0.0 0.00 0.00 0.00 99 1018.6
20191019053318 40 192 0.0 0.0 0.00 0.00 0.00 100 1018.5
20191019052819 40 190 0.0 0.0 0.00 0.00 0.00 100 1018.4
20191019051819 40 169 0.0 0.0 0.00 0.00 0.00 99 1018.4
20191019051318 40 153 0.0 0.0 0.00 0.00 0.00 99 1018.2
20191019050820 40 157 0.0 0.0 0.00 0.00 0.00 99 1018.2
20191019050318 40 170 0.0 0.0 0.00 0.00 0.00 99 1017.9
20191019045819 40 167 0.0 0.0 0.00 0.00 0.00 99 1018.0
20191019045319 41 133 0.0 0.0 0.00 0.00 0.00 99 1018.1
20191019044819 41 174 0.0 0.0 0.00 0.00 0.00 99 1018.1
20191019044320 41 172 0.0 0.0 0.00 0.00 0.00 98 1018.2
20191019043820 42 174 0.0 0.0 0.00 0.00 0.00 98 1018.3
20191019043318 42 175 0.0 0.0 0.00 0.00 0.00 97 1018.4
20191019042820 42 150 0.0 0.0 0.00 0.00 0.00 97 1018.6
20191019042318 42 120 0.0 0.0 0.00 0.00 0.00 96 1018.5
20191019041818 42 104 0.0 0.0 0.00 0.00 0.00 96 1018.6
20191019041318 43 119 0.0 0.0 0.00 0.00 0.00 96 1018.5
20191019040819 43 115 0.0 0.0 0.00 0.00 0.00 96 1018.6
20191019040317 43 103 0.0 0.0 0.00 0.00 0.00 95 1018.6
20191019035818 43 143 0.0 0.0 0.00 0.00 0.00 94 1018.7
20191019035318 43 116 0.0 0.0 0.00 0.00 0.00 94 1018.7
20191019034818 43 123 0.0 0.0 0.00 0.00 0.00 94 1018.7
20191019034317 43 93 0.0 0.0 0.00 0.00 0.00 94 1018.7
20191019033818 44 115 0.0 0.0 0.00 0.00 0.00 94 1018.7
20191019033318 44 115 0.0 0.0 0.00 0.00 0.00 93 1018.7
20191019032819 44 150 0.0 0.0 0.00 0.00 0.00 93 1018.8
20191019032317 44 126 0.0 0.0 0.00 0.00 0.00 93 1019.1
20191019031817 44 120 0.0 0.0 0.00 0.00 0.00 94 1019.1
20191019031318 44 146 0.0 0.0 0.00 0.00 0.00 93 1019.1
20191019030818 44 120 0.0 0.0 0.00 0.00 0.00 94 1019.1
20191019030316 44 99 0.0 0.0 0.00 0.00 0.00 94 1019.3
20191019025818 44 146 0.0 0.0 0.00 0.00 0.00 93 1019.3
20191019025317 44 125 0.0 0.0 0.00 0.00 0.00 91 1019.3
20191019024817 44 153 0.0 0.0 0.00 0.00 0.00 90 1019.3
20191019024316 44 155 0.0 0.0 0.00 0.00 0.00 89 1019.4
20191019023816 44 154 0.0 0.0 0.00 0.00 0.00 89 1019.4
20191019023317 44 147 0.0 0.0 0.00 0.00 0.00 88 1019.3
20191019022818 45 151 0.0 0.0 0.00 0.00 0.00 89 1019.4
20191019022315 45 164 0.0 0.0 0.00 0.00 0.00 89 1019.4
20191019021817 45 165 0.0 0.0 0.00 0.00 0.00 87 1019.4
20191019021316 45 165 0.0 0.0 0.00 0.00 0.00 87 1019.4
20191019020818 45 165 0.0 0.0 0.00 0.00 0.00 87 1019.4
20191019020315 45 165 0.0 0.0 0.00 0.00 0.00 87 1019.4
20191019015816 45 166 0.0 0.0 0.00 0.00 0.00 87 1019.4
20191019015316 45 162 0.0 0.0 0.00 0.00 0.00 87 1019.4
20191019014817 46 180 0.0 0.0 0.00 0.00 0.00 87 1019.4
20191019014315 46 178 0.0 0.0 0.00 0.00 0.00 87 1019.4
20191019013816 46 180 0.0 0.0 0.00 0.00 0.00 87 1019.3
20191019013317 46 174 0.0 0.0 0.00 0.00 0.00 86 1019.2
20191019012815 45 163 0.0 0.0 0.00 0.00 0.00 86 1019.2
20191019012315 45 163 0.0 0.0 0.00 0.00 0.00 86 1019.3
20191019011815 45 162 0.0 0.0 0.00 0.00 0.00 85 1019.1
20191019011316 45 162 0.0 0.0 0.00 0.00 0.00 86 1019.1
20191019010815 45 168 0.0 0.0 0.00 0.00 0.00 87 1018.8
20191019010316 45 170 0.0 0.0 0.00 0.00 0.00 87 1018.9
20191019005815 45 170 0.0 0.0 0.00 0.00 0.00 87 1018.9
20191019005315 46 170 0.0 0.0 0.00 0.00 0.00 86 1018.9
20191019004815 46 170 0.0 0.0 0.00 0.00 0.00 87 1018.9
20191019004315 46 170 0.0 0.0 0.00 0.00 0.00 87 1018.9
20191019003815 46 168 0.0 0.0 0.00 0.00 0.00 87 1018.9
20191019003315 46 177 0.0 0.0 0.00 0.00 0.00 87 1018.9
20191019002814 46 193 0.0 0.0 0.00 0.00 0.00 86 1018.9
20191019002315 46 194 0.0 0.0 0.00 0.00 0.00 85 1018.9
20191019001814 47 194 0.0 0.0 0.00 0.00 0.00 85 1018.9
20191019001315 47 193 0.0 0.0 0.00 0.00 0.00 85 1018.9
20191019000814 48 193 0.0 0.0 0.00 0.00 0.00 86 1018.9
20191019000315 48 181 0.0 0.0 0.00 0.00 0.00 86 1018.9
20191018235813 49 161 0.0 0.0 0.00 0.00 0.00 86 1018.9
20191018235315 49 207 0.0 0.0 0.00 0.00 0.00 84 1018.7
20191018234814 49 217 0.0 0.0 0.00 0.00 0.00 82 1018.6
20191018234315 49 214 0.0 0.0 0.00 0.00 0.00 81 1018.6
20191018233813 49 212 0.0 0.0 0.00 0.00 0.00 80 1018.6
20191018233314 48 216 0.0 0.0 0.00 0.00 0.00 80 1018.6
20191018232815 48 231 0.0 0.0 0.00 0.00 0.00 81 1018.6
20191018232316 48 216 0.0 0.0 0.00 0.00 0.00 82 1018.5
20191018231812 49 211 0.0 0.0 0.00 0.00 0.00 82 1018.5
20191018231314 49 211 0.0 0.0 0.00 0.00 0.00 82 1018.4
20191018230814 49 213 0.0 0.0 0.00 0.00 0.00 82 1018.4
20191018230315 49 208 0.0 0.0 0.00 0.00 0.00 81 1018.3
20191018225813 49 220 0.0 0.0 0.00 0.00 0.00 81 1018.3
20191018225315 49 210 0.0 0.0 0.00 0.00 0.00 81 1018.3
20191018224813 49 210 0.0 0.0 0.00 0.00 0.00 80 1018.4
20191018224315 50 199 0.0 0.0 0.00 0.00 0.00 79 1018.3
20191018223812 50 207 0.0 2.0 0.00 0.00 0.00 79 1018.3
20191018223313 50 206 0.0 2.0 0.00 0.00 0.00 79 1018.4
20191018222814 50 211 0.0 0.0 0.00 0.00 0.00 81 1018.3
20191018222314 51 198 0.0 0.0 0.00 0.00 0.00 80 1018.3
20191018221812 51 196 0.0 0.0 0.00 0.00 0.00 79 1018.4
20191018221313 52 195 0.0 0.0 0.00 0.00 0.00 78 1018.4
20191018220813 53 195 0.0 0.0 0.00 0.00 0.00 77 1018.3
20191018220313 54 202 0.0 2.0 0.00 0.00 0.00 77 1018.3
20191018215812 55 152 0.0 2.0 0.00 0.00 0.00 76 1018.3
20191018215313 56 198 0.0 2.0 0.00 0.00 0.00 77 1018.4
20191018214812 56 207 0.0 2.0 0.00 0.00 0.00 74 1018.3
20191018214313 57 209 0.0 2.0 0.00 0.00 0.00 70 1018.3
20191018213811 57 202 0.0 5.0 0.00 0.00 0.00 70 1018.2
20191018213312 57 239 0.0 8.0 0.00 0.00 0.00 70 1018.2
20191018212813 57 207 0.0 8.0 0.00 0.00 0.00 72 1018.2
20191018212313 57 195 0.0 5.0 0.00 0.00 0.00 71 1018.3
20191018211813 57 209 0.0 5.0 0.00 0.00 0.00 70 1018.4
20191018211312 57 187 0.0 5.0 0.00 0.00 0.00 69 1018.5
20191018210812 57 222 1.0 5.0 0.00 0.00 0.00 68 1018.4
20191018210313 57 228 1.0 8.0 0.00 0.00 0.00 69 1018.5
20191018205811 57 236 1.0 8.0 0.00 0.00 0.00 69 1018.5
20191018205314 57 226 0.0 5.0 0.00 0.00 0.00 69 1018.6
20191018204812 57 162 1.0 8.0 0.00 0.00 0.00 68 1018.6
20191018204313 57 248 1.0 8.0 0.00 0.00 0.00 69 1018.5
20191018203810 57 184 0.0 5.0 0.00 0.00 0.00 69 1018.5
20191018203311 57 249 0.0 5.0 0.00 0.00 0.00 70 1018.5
20191018202811 57 180 1.0 8.0 0.00 0.00 0.00 69 1018.4
20191018202312 57 204 1.0 8.0 0.00 0.00 0.00 69 1018.4
20191018201811 56 213 1.0 2.0 0.00 0.00 0.00 69 1018.5
20191018201311 56 287 0.0 5.0 0.00 0.00 0.00 70 1018.5
20191018200811 56 196 0.0 5.0 0.00 0.00 0.00 70 1018.6
20191018200311 56 17 2.0 5.0 0.00 0.00 0.00 70 1018.6
20191018195812 55 209 0.0 8.0 0.00 0.00 0.00 70 1018.6
20191018195312 56 216 1.0 8.0 0.00 0.00 0.00 70 1018.5
20191018194812 56 20 2.0 8.0 0.00 0.00 0.00 70 1018.4
20191018194312 56 0 2.0 8.0 0.00 0.00 0.00 70 1018.5
20191018193811 56 330 1.0 8.0 0.00 0.00 0.00 72 1018.5
20191018193311 57 208 0.0 8.0 0.00 0.00 0.00 70 1018.6
20191018192811 57 21 2.0 8.0 0.00 0.00 0.00 70 1018.5